Time;durP1;ratioP1;P1;durP2;ratioP2;P2;SDS_P1;SDS_P2;PMS_P1;PMS_P2;Temp;Humidity;BMP_temperature;BMP_pressure;BME280_temperature;BME280_humidity;BME280_pressure;Samples;Min_cycle;Max_cycle;Signal;HPM_P1;HPM_P2
2023/04/12 00:01:34;;;;;;;6.68;3.60;;;8.30;75.20;;;;;;4917121;29;20132;-78
2023/04/12 00:04:04;;;;;;;6.82;3.75;;;8.30;74.90;;;;;;4913057;29;20044;-78
2023/04/12 00:06:32;;;;;;;5.60;3.80;;;8.20;75.60;;;;;;4914057;29;20147;-78
2023/04/12 00:09:00;;;;;;;5.75;3.22;;;8.20;75.80;;;;;;4878569;29;20111;-79
2023/04/12 00:11:31;;;;;;;5.65;3.50;;;8.20;76.50;;;;;;4913987;29;20051;-79
2023/04/12 00:13:58;;;;;;;5.93;3.67;;;8.10;77.30;;;;;;4891903;29;20100;-78
2023/04/12 00:16:26;;;;;;;8.48;3.85;;;8.10;77.60;;;;;;4906639;29;20066;-77
2023/04/12 00:18:54;;;;;;;9.18;3.38;;;8.10;77.80;;;;;;4914458;29;20052;-78
2023/04/12 00:21:22;;;;;;;4.93;3.97;;;8.10;78.10;;;;;;4915136;29;20043;-78
2023/04/12 00:23:50;;;;;;;4.15;3.15;;;8.10;77.80;;;;;;4911945;29;20044;-77
2023/04/12 00:26:18;;;;;;;6.43;3.45;;;8.00;78.20;;;;;;4914046;29;20222;-78
2023/04/12 00:28:47;;;;;;;4.18;2.83;;;8.00;77.90;;;;;;4913124;29;20063;-78
2023/04/12 00:31:17;;;;;;;6.60;3.58;;;8.00;76.90;;;;;;4896883;29;20050;-79
2023/04/12 00:33:45;;;;;;;4.82;3.33;;;8.00;77.50;;;;;;4888633;29;20056;-76
2023/04/12 00:36:12;;;;;;;6.78;3.70;;;8.00;77.00;;;;;;4912861;29;20875;-76
2023/04/12 00:38:44;;;;;;;5.72;2.88;;;8.10;76.80;;;;;;4913397;29;20474;-76
2023/04/12 00:41:12;;;;;;;6.50;2.97;;;8.10;75.80;;;;;;4896952;29;20060;-76
2023/04/12 00:43:41;;;;;;;6.03;3.38;;;8.00;76.20;;;;;;4910879;29;20584;-76
2023/04/12 00:46:10;;;;;;;7.22;3.22;;;8.00;76.60;;;;;;4913008;29;20052;-75
2023/04/12 00:48:39;;;;;;;3.78;2.75;;;8.00;76.60;;;;;;4914826;29;20390;-75
2023/04/12 00:51:07;;;;;;;6.82;2.80;;;8.00;77.20;;;;;;4912561;29;20047;-76
2023/04/12 00:53:35;;;;;;;5.28;2.65;;;7.90;77.50;;;;;;4906967;29;20048;-75
2023/04/12 00:56:04;;;;;;;4.47;2.88;;;7.90;77.30;;;;;;4894763;29;20600;-76
2023/04/12 00:58:31;;;;;;;4.75;2.95;;;7.80;77.20;;;;;;4905182;29;20080;-76
2023/04/12 01:00:59;;;;;;;4.25;2.83;;;7.80;77.50;;;;;;4912508;29;20052;-76
2023/04/12 01:03:29;;;;;;;3.67;3.00;;;7.80;77.90;;;;;;4892633;29;20076;-76
2023/04/12 01:06:09;;;;;;;3.15;2.80;;;7.80;78.10;;;;;;4893804;29;20497;-76
2023/04/12 01:08:52;;;;;;;4.43;2.72;;;7.80;78.30;;;;;;4907857;29;20049;-77
2023/04/12 01:11:31;;;;;;;5.18;2.65;;;7.80;79.70;;;;;;4893085;29;20059;-77
2023/04/12 01:14:08;;;;;;;12.57;4.47;;;7.80;79.90;;;;;;4880221;29;20083;-77
2023/04/12 01:16:43;;;;;;;11.02;3.45;;;7.80;78.80;;;;;;4876951;29;20048;-77
2023/04/12 01:19:35;;;;;;;20.20;3.30;;;7.80;78.80;;;;;;4898287;29;20115;-76
2023/04/12 01:22:17;;;;;;;6.88;3.50;;;7.80;78.40;;;;;;4899017;29;20048;-77
2023/04/12 01:25:04;;;;;;;7.47;3.33;;;7.80;78.90;;;;;;4878749;29;20052;-76
2023/04/12 01:27:43;;;;;;;11.70;3.40;;;7.80;78.90;;;;;;4896903;29;20095;-76
2023/04/12 01:30:14;;;;;;;5.28;2.72;;;7.80;79.40;;;;;;4899762;29;20055;-77
2023/04/12 01:32:46;;;;;;;4.32;2.92;;;7.70;79.60;;;;;;4915410;29;20056;-77
2023/04/12 01:35:15;;;;;;;4.00;3.42;;;7.70;80.00;;;;;;4899454;29;20047;-77
2023/04/12 01:37:43;;;;;;;9.13;3.08;;;7.70;80.30;;;;;;4917674;29;20143;-77
2023/04/12 01:40:13;;;;;;;3.97;3.10;;;7.70;81.10;;;;;;4900749;29;20414;-77
2023/04/12 01:42:42;;;;;;;5.88;3.42;;;7.80;80.80;;;;;;4900792;29;20541;-77
2023/04/12 01:45:10;;;;;;;5.53;3.13;;;7.70;80.60;;;;;;4910523;29;20071;-75
2023/04/12 01:47:38;;;;;;;3.45;2.80;;;7.70;80.80;;;;;;4896640;29;20079;-76
2023/04/12 01:50:16;;;;;;;4.18;3.10;;;7.70;81.50;;;;;;4882890;29;20076;-76
2023/04/12 01:52:55;;;;;;;6.55;3.10;;;7.70;81.00;;;;;;4909268;29;20052;-76
2023/04/12 01:55:24;;;;;;;3.60;3.13;;;7.70;81.40;;;;;;4916701;29;20091;-78
2023/04/12 01:57:54;;;;;;;5.45;2.90;;;7.70;81.30;;;;;;4906959;29;20462;-78
2023/04/12 02:00:22;;;;;;;6.03;3.00;;;7.60;81.30;;;;;;4915824;29;20146;-77
2023/04/12 02:02:50;;;;;;;3.65;2.45;;;7.60;81.80;;;;;;4916784;29;20047;-77
2023/04/12 02:05:19;;;;;;;7.47;2.55;;;7.60;82.50;;;;;;4904868;29;20049;-77
2023/04/12 02:07:47;;;;;;;3.50;2.60;;;7.60;81.90;;;;;;4900468;29;20151;-77
2023/04/12 02:10:29;;;;;;;6.75;2.72;;;7.50;81.80;;;;;;4869588;29;20049;-76
2023/04/12 02:13:00;;;;;;;5.93;2.80;;;7.50;81.90;;;;;;4899362;29;20103;-77
2023/04/12 02:15:28;;;;;;;6.85;2.45;;;7.50;81.90;;;;;;4884736;29;20044;-77
2023/04/12 02:17:58;;;;;;;7.22;3.33;;;7.50;82.10;;;;;;4899750;29;20044;-77
2023/04/12 02:20:26;;;;;;;5.22;2.42;;;7.50;82.10;;;;;;4914922;29;20509;-76
2023/04/12 02:22:54;;;;;;;5.95;2.70;;;7.50;82.30;;;;;;4912335;29;20084;-76
2023/04/12 02:25:22;;;;;;;4.18;2.22;;;7.50;81.30;;;;;;4916103;29;20059;-77
2023/04/12 02:27:49;;;;;;;2.83;2.55;;;7.50;81.70;;;;;;4897400;29;20072;-77
2023/04/12 02:30:19;;;;;;;5.82;2.50;;;7.50;81.70;;;;;;4912700;29;20517;-78
2023/04/12 02:32:52;;;;;;;2.50;2.20;;;7.50;82.50;;;;;;4896923;29;20083;-75
2023/04/12 02:35:33;;;;;;;4.85;2.30;;;7.50;82.40;;;;;;4896470;29;20135;-75
2023/04/12 02:38:07;;;;;;;4.22;2.55;;;7.50;82.40;;;;;;4914575;29;20111;-76
2023/04/12 02:40:40;;;;;;;5.60;2.80;;;7.50;81.90;;;;;;4899873;29;20064;-76
2023/04/12 02:43:11;;;;;;;2.50;2.25;;;7.40;83.20;;;;;;4914791;29;20500;-76
2023/04/12 02:45:44;;;;;;;8.50;3.40;;;7.40;84.20;;;;;;4903608;29;20428;-76
2023/04/12 02:48:14;;;;;;;9.73;3.22;;;7.40;84.00;;;;;;4915853;29;20711;-76
2023/04/12 02:50:41;;;;;;;11.20;3.72;;;7.40;82.60;;;;;;4897676;29;20040;-76
2023/04/12 02:53:16;;;;;;;9.13;2.90;;;7.40;83.80;;;;;;4899360;29;20051;-76
2023/04/12 02:55:47;;;;;;;8.27;2.97;;;7.40;81.80;;;;;;4895415;29;20056;-77
2023/04/12 02:58:19;;;;;;;2.90;2.58;;;7.40;81.50;;;;;;4898163;29;20048;-76
2023/04/12 03:00:50;;;;;;;8.57;3.25;;;7.40;81.80;;;;;;4895479;29;20053;-75
2023/04/12 03:03:24;;;;;;;8.75;2.90;;;7.40;83.00;;;;;;4892664;29;20055;-75
2023/04/12 03:05:57;;;;;;;8.68;3.13;;;7.40;82.10;;;;;;4914182;29;20391;-75
2023/04/12 03:08:24;;;;;;;7.20;2.90;;;7.50;82.30;;;;;;4898348;29;20063;-75
2023/04/12 03:10:56;;;;;;;5.78;2.50;;;7.50;81.80;;;;;;4908313;29;20149;-74
2023/04/12 03:13:25;;;;;;;4.43;2.80;;;7.60;81.30;;;;;;4913457;29;20154;-75
2023/04/12 03:15:59;;;;;;;5.95;3.03;;;7.60;81.30;;;;;;4895307;29;20087;-75
2023/04/12 03:18:37;;;;;;;8.75;3.20;;;7.70;81.60;;;;;;4911623;29;20064;-76
2023/04/12 03:21:05;;;;;;;7.15;3.15;;;7.70;81.00;;;;;;4897833;29;20457;-75
2023/04/12 03:23:33;;;;;;;5.55;2.75;;;7.70;81.10;;;;;;4893025;29;20051;-77
2023/04/12 03:26:14;;;;;;;7.38;3.33;;;7.70;80.20;;;;;;4881544;29;20056;-75
2023/04/12 03:29:03;;;;;;;6.57;2.90;;;7.80;81.20;;;;;;4892054;29;20068;-76
2023/04/12 03:31:36;;;;;;;4.82;2.70;;;7.80;80.40;;;;;;4888405;29;20052;-76
2023/04/12 03:34:08;;;;;;;11.73;3.75;;;7.80;80.50;;;;;;4898237;29;20055;-75
2023/04/12 03:36:40;;;;;;;7.53;3.00;;;7.80;79.70;;;;;;4896025;29;20095;-76
2023/04/12 03:39:34;;;;;;;7.88;3.60;;;7.80;80.00;;;;;;4889346;29;20060;-76
2023/04/12 03:42:01;;;;;;;13.80;4.18;;;7.80;79.80;;;;;;4914951;29;20068;-76
2023/04/12 03:44:29;;;;;;;7.82;3.58;;;7.80;80.40;;;;;;4915288;29;20428;-76
2023/04/12 03:47:02;;;;;;;7.38;3.58;;;7.80;81.60;;;;;;4897703;29;20146;-77
2023/04/12 03:49:37;;;;;;;11.68;4.82;;;7.90;80.20;;;;;;4910020;29;20059;-75
2023/04/12 03:52:06;;;;;;;11.00;3.75;;;7.90;79.80;;;;;;4909315;29;20076;-76
2023/04/12 03:54:37;;;;;;;10.15;3.70;;;7.90;79.60;;;;;;4912520;29;20406;-79
2023/04/12 03:57:13;;;;;;;13.15;4.22;;;7.80;80.00;;;;;;4910648;29;20048;-78
2023/04/12 03:59:48;;;;;;;9.93;3.67;;;7.90;82.90;;;;;;4895147;29;20052;-81
2023/04/12 04:02:22;;;;;;;;;;;7.90;82.20;;;;;;4892099;29;20048;-78
2023/04/12 04:04:52;;;;;;;7.45;4.03;;;7.90;81.50;;;;;;4884708;29;19934;-78
2023/04/12 04:07:27;;;;;;;17.55;3.80;;;7.90;81.50;;;;;;4897200;29;20131;-78
2023/04/12 04:09:56;;;;;;;14.35;4.53;;;7.90;82.00;;;;;;4897867;29;20052;-80
2023/04/12 04:12:27;;;;;;;17.00;4.45;;;8.00;82.40;;;;;;4883767;29;20060;-81
2023/04/12 04:14:56;;;;;;;16.45;4.85;;;8.00;81.70;;;;;;4895167;29;20146;-80
2023/04/12 04:17:32;;;;;;;15.10;4.40;;;8.00;82.10;;;;;;4894391;29;20056;-81
2023/04/12 04:20:00;;;;;;;16.17;4.82;;;8.00;82.80;;;;;;4883824;29;20068;-81
2023/04/12 04:22:33;;;;;;;13.37;4.73;;;8.10;83.40;;;;;;4908077;29;20070;-81
2023/04/12 04:25:03;;;;;;;7.47;4.05;;;8.10;82.30;;;;;;4912023;29;20311;-81
2023/04/12 04:27:37;;;;;;;9.52;4.32;;;8.20;83.00;;;;;;4878361;29;20588;-79
2023/04/12 04:30:10;;;;;;;17.20;4.10;;;8.20;85.10;;;;;;4896110;29;20052;-78
2023/04/12 04:32:44;;;;;;;20.80;4.30;;;8.20;82.80;;;;;;4906620;29;20558;-82
2023/04/12 04:35:15;;;;;;;10.55;3.72;;;8.20;81.90;;;;;;4893792;29;20048;-78
2023/04/12 04:38:03;;;;;;;14.13;3.42;;;8.20;80.80;;;;;;4891535;29;20056;-80
2023/04/12 04:40:33;;;;;;;19.55;4.50;;;8.10;80.40;;;;;;4878948;29;20052;-80
2023/04/12 04:43:02;;;;;;;14.02;3.72;;;8.10;81.30;;;;;;4896474;29;20040;-78
2023/04/12 04:45:35;;;;;;;11.00;3.63;;;8.20;81.70;;;;;;4895189;29;20057;-77
2023/04/12 04:48:05;;;;;;;17.33;3.85;;;8.20;81.20;;;;;;4914865;29;20146;-80
2023/04/12 04:50:33;;;;;;;16.63;4.68;;;8.10;80.40;;;;;;4912541;29;20163;-78
2023/04/12 04:53:02;;;;;;;18.45;4.15;;;8.10;80.50;;;;;;4886526;29;20052;-78
2023/04/12 04:55:35;;;;;;;21.75;4.20;;;8.10;81.30;;;;;;4894378;29;20791;-76
2023/04/12 04:58:03;;;;;;;9.38;3.40;;;8.20;81.70;;;;;;4914078;29;20413;-76
2023/04/12 05:00:30;;;;;;;13.85;3.88;;;8.20;84.40;;;;;;4875384;29;20424;-77
2023/04/12 05:03:00;;;;;;;21.83;4.85;;;8.20;84.10;;;;;;4894197;29;20110;-81
2023/04/12 05:05:31;;;;;;;16.05;3.75;;;8.30;84.50;;;;;;4882529;29;20044;-80
2023/04/12 05:08:07;;;;;;;11.88;4.57;;;8.30;84.00;;;;;;4895498;29;20052;-80
2023/04/12 05:10:36;;;;;;;17.67;3.67;;;8.30;85.00;;;;;;4891719;29;20048;-80
2023/04/12 05:13:04;;;;;;;15.43;3.95;;;8.40;85.10;;;;;;4894773;29;20048;-78
2023/04/12 05:15:32;;;;;;;12.40;4.00;;;8.40;84.50;;;;;;4879309;29;20048;-81
2023/04/12 05:18:00;;;;;;;18.63;3.55;;;8.40;83.20;;;;;;4912760;29;20406;-79
2023/04/12 05:20:30;;;;;;;11.82;3.72;;;8.50;82.70;;;;;;4913166;29;20063;-80
2023/04/12 05:22:58;;;;;;;14.68;4.50;;;8.50;81.30;;;;;;4911668;29;20529;-81
2023/04/12 05:25:25;;;;;;;7.18;3.58;;;8.40;80.60;;;;;;4894933;29;20052;-80
2023/04/12 05:28:01;;;;;;;12.98;3.28;;;8.30;80.90;;;;;;4894973;29;20052;-80
2023/04/12 05:30:30;;;;;;;14.65;3.97;;;8.30;82.30;;;;;;4895120;29;20082;-78
2023/04/12 05:32:58;;;;;;;18.58;3.78;;;8.40;83.20;;;;;;4895300;29;20055;-78
2023/04/12 05:35:26;;;;;;;16.80;3.75;;;8.40;83.60;;;;;;4895016;29;20108;-79
2023/04/12 05:38:00;;;;;;;11.70;3.63;;;8.50;82.10;;;;;;4879292;29;20143;-78
2023/04/12 05:40:30;;;;;;;16.67;3.55;;;8.70;82.10;;;;;;4894568;29;20048;-79
2023/04/12 05:42:58;;;;;;;11.10;4.32;;;9.00;82.60;;;;;;4895013;29;20168;-80
2023/04/12 05:45:29;;;;;;;11.80;3.78;;;9.40;82.10;;;;;;4894831;29;20048;-79
2023/04/12 05:47:57;;;;;;;10.05;3.30;;;9.90;79.10;;;;;;4894753;29;20123;-79
2023/04/12 05:50:25;;;;;;;6.55;3.20;;;10.30;75.60;;;;;;4894679;29;20813;-79
2023/04/12 05:52:54;;;;;;;10.05;4.05;;;10.70;75.30;;;;;;4896156;29;20048;-77
2023/04/12 05:55:29;;;;;;;22.23;3.80;;;11.20;73.10;;;;;;4897004;29;20531;-79
2023/04/12 05:57:57;;;;;;;11.48;3.38;;;11.80;70.70;;;;;;4913932;29;20061;-78
2023/04/12 06:01:07;;;;;;;14.85;3.75;;;12.40;69.60;;;;;;4895460;29;20509;-79
2023/04/12 06:03:34;;;;;;;21.52;3.88;;;12.80;67.40;;;;;;4906658;29;20139;-79
2023/04/12 06:06:09;;;;;;;12.20;3.95;;;13.20;67.00;;;;;;4899175;29;20409;-80
2023/04/12 06:08:37;;;;;;;13.77;4.10;;;13.70;65.60;;;;;;4916476;29;20060;-79
2023/04/12 06:11:06;;;;;;;14.52;4.13;;;14.00;63.00;;;;;;4898712;29;20091;-78
2023/04/12 06:13:36;;;;;;;18.60;3.90;;;14.10;63.10;;;;;;4903056;29;20538;-78
2023/04/12 06:16:03;;;;;;;12.13;4.07;;;14.30;62.60;;;;;;4910871;29;20059;-80
2023/04/12 06:18:31;;;;;;;18.05;4.63;;;14.50;61.60;;;;;;4898974;29;20052;-81
2023/04/12 06:20:59;;;;;;;12.75;4.07;;;14.60;61.40;;;;;;4899287;29;20111;-79
2023/04/12 06:23:27;;;;;;;17.90;4.28;;;14.70;60.40;;;;;;4897201;29;20054;-80
2023/04/12 06:25:54;;;;;;;20.67;4.63;;;14.90;60.10;;;;;;4883599;29;20056;-81
2023/04/12 06:28:23;;;;;;;17.42;4.78;;;15.10;60.30;;;;;;4882977;29;20107;-78
2023/04/12 06:30:53;;;;;;;14.43;4.93;;;15.50;59.80;;;;;;4894868;29;20425;-78
2023/04/12 06:33:21;;;;;;;29.13;5.43;;;15.90;58.60;;;;;;4898181;29;20127;-77
2023/04/12 06:35:50;;;;;;;10.35;4.80;;;16.10;58.30;;;;;;4897920;29;20059;-78
2023/04/12 06:38:18;;;;;;;19.25;5.63;;;16.20;57.50;;;;;;4897889;29;20052;-77
2023/04/12 06:40:47;;;;;;;30.70;5.65;;;16.40;58.00;;;;;;4915956;29;20131;-78
2023/04/12 06:43:17;;;;;;;18.92;5.15;;;16.70;57.00;;;;;;4883785;29;20056;-78
2023/04/12 06:45:46;;;;;;;14.68;4.78;;;16.90;57.00;;;;;;4901412;29;20051;-79
2023/04/12 06:48:14;;;;;;;22.67;5.05;;;17.20;55.90;;;;;;4915422;29;20052;-78
2023/04/12 06:50:41;;;;;;;21.60;5.38;;;17.60;56.10;;;;;;4915975;29;20187;-79
2023/04/12 06:53:09;;;;;;;33.90;5.93;;;18.00;54.90;;;;;;4886614;29;20056;-78
2023/04/12 06:55:37;;;;;;;29.48;6.35;;;18.30;54.20;;;;;;4920257;29;20055;-78
2023/04/12 06:58:04;;;;;;;19.13;6.07;;;18.60;54.10;;;;;;4922349;29;20060;-79
2023/04/12 07:00:32;;;;;;;32.97;7.28;;;18.90;53.30;;;;;;4898122;29;20056;-78
2023/04/12 07:03:01;;;;;;;24.88;6.15;;;19.20;52.90;;;;;;4909950;29;20079;-78
2023/04/12 07:05:29;;;;;;;21.45;5.45;;;19.40;52.70;;;;;;4897235;29;20051;-78
2023/04/12 07:07:56;;;;;;;24.20;5.07;;;19.50;52.40;;;;;;4924782;29;20048;-77
2023/04/12 07:10:24;;;;;;;21.13;5.50;;;19.80;51.70;;;;;;4917881;29;20056;-78
2023/04/12 07:12:51;;;;;;;15.80;5.90;;;20.10;51.40;;;;;;4920532;29;20051;-79
2023/04/12 07:15:19;;;;;;;24.15;5.57;;;20.50;51.50;;;;;;4922011;29;20615;-79
2023/04/12 07:17:46;;;;;;;19.45;6.13;;;20.70;50.20;;;;;;4908176;29;20055;-76
2023/04/12 07:20:16;;;;;;;29.98;6.10;;;21.00;50.10;;;;;;4889898;29;20126;-76
2023/04/12 07:22:43;;;;;;;17.90;5.13;;;21.30;49.70;;;;;;4917511;29;20521;-76
2023/04/12 07:25:11;;;;;;;29.20;6.30;;;21.60;50.80;;;;;;4915358;29;20056;-76
2023/04/12 07:27:42;;;;;;;19.48;5.85;;;21.80;48.90;;;;;;4908273;29;20051;-76
2023/04/12 07:30:11;;;;;;;25.23;6.20;;;22.00;49.00;;;;;;4927696;29;20055;-82
2023/04/12 07:32:39;;;;;;;38.22;6.65;;;22.20;48.20;;;;;;4894145;29;20417;-84
2023/04/12 07:35:08;;;;;;;26.48;6.30;;;22.60;48.20;;;;;;4923600;29;20065;-85
2023/04/12 07:37:37;;;;;;;36.92;8.32;;;23.00;46.50;;;;;;4898735;29;20045;-83
2023/04/12 07:40:07;;;;;;;21.85;6.75;;;23.10;46.30;;;;;;4904080;29;20623;-86
2023/04/12 07:42:34;;;;;;;22.77;6.13;;;23.10;46.10;;;;;;4905045;29;20075;-86
2023/04/12 07:45:02;;;;;;;31.98;5.65;;;22.80;46.10;;;;;;4888380;29;20466;-78
2023/04/12 07:47:31;;;;;;;28.83;5.93;;;22.70;46.60;;;;;;4914427;29;20052;-78
2023/04/12 07:49:59;;;;;;;37.75;7.22;;;22.90;46.50;;;;;;4897198;29;20521;-78
2023/04/12 07:52:26;;;;;;;26.00;4.68;;;23.10;46.40;;;;;;4914626;29;20104;-79
2023/04/12 07:54:55;;;;;;;22.60;5.45;;;23.70;45.30;;;;;;4906212;29;20056;-77
2023/04/12 07:57:23;;;;;;;19.60;5.65;;;24.10;44.50;;;;;;4915189;29;20150;-78
2023/04/12 07:59:50;;;;;;;21.42;5.50;;;24.40;44.20;;;;;;4921914;29;20417;-78
2023/04/12 08:02:23;;;;;;;12.18;5.55;;;24.40;43.80;;;;;;4922616;29;20708;-78
2023/04/12 08:04:51;;;;;;;16.30;4.80;;;24.50;44.60;;;;;;4912495;29;20100;-78
2023/04/12 08:07:18;;;;;;;25.38;6.07;;;24.70;43.80;;;;;;4912661;29;20059;-78
2023/04/12 08:09:48;;;;;;;32.33;6.30;;;24.80;43.40;;;;;;4914034;29;20084;-79
2023/04/12 08:12:17;;;;;;;26.98;6.53;;;24.90;43.80;;;;;;4913168;29;20052;-78
2023/04/12 08:14:44;;;;;;;22.42;6.30;;;25.10;43.60;;;;;;4918838;29;20047;-80
2023/04/12 08:17:12;;;;;;;25.77;5.85;;;25.10;43.10;;;;;;4896976;29;20060;-79
2023/04/12 08:19:39;;;;;;;16.80;6.10;;;25.10;43.80;;;;;;4918306;29;20447;-77
2023/04/12 08:22:07;;;;;;;29.23;6.72;;;25.30;43.30;;;;;;4915362;29;20452;-78
2023/04/12 08:24:34;;;;;;;24.70;6.30;;;25.20;43.60;;;;;;4908498;29;20462;-78
2023/04/12 08:27:02;;;;;;;27.88;7.32;;;25.50;43.70;;;;;;4931570;29;20055;-78
2023/04/12 08:29:31;;;;;;;21.08;5.93;;;25.80;43.20;;;;;;4912224;29;20051;-78
2023/04/12 08:32:00;;;;;;;19.58;5.82;;;25.80;42.40;;;;;;4913858;29;20048;-78
2023/04/12 08:34:27;;;;;;;30.27;6.80;;;25.40;42.80;;;;;;4904040;29;20128;-78
2023/04/12 08:36:58;;;;;;;23.15;6.75;;;25.20;43.10;;;;;;4932403;29;20097;-77
2023/04/12 08:39:25;;;;;;;29.50;6.07;;;25.50;43.30;;;;;;4902053;29;20378;-78
2023/04/12 08:41:54;;;;;;;27.13;6.97;;;25.70;43.10;;;;;;4880484;29;20461;-78
2023/04/12 08:44:36;;;;;;;22.30;7.45;;;26.10;42.80;;;;;;4908956;29;20083;-79
2023/04/12 08:47:05;;;;;;;36.95;9.70;;;26.20;42.50;;;;;;4918193;29;20071;-77
2023/04/12 08:49:34;;;;;;;18.13;7.38;;;26.40;42.90;;;;;;4913111;29;20443;-82
2023/04/12 08:52:05;;;;;;;26.02;7.00;;;26.50;42.70;;;;;;4911186;29;20059;-78
2023/04/12 08:54:33;;;;;;;17.42;6.53;;;26.90;42.70;;;;;;4896463;29;20517;-78
2023/04/12 08:57:03;;;;;;;11.90;5.15;;;27.30;43.70;;;;;;4913743;29;20584;-79
2023/04/12 08:59:33;;;;;;;16.40;5.47;;;27.60;42.90;;;;;;4914943;29;20102;-78
2023/04/12 09:02:01;;;;;;;15.13;6.10;;;28.00;43.00;;;;;;4904014;29;20114;-79
2023/04/12 09:04:29;;;;;;;17.52;5.72;;;28.30;42.30;;;;;;4895311;29;20060;-79
2023/04/12 09:06:57;;;;;;;18.42;6.53;;;28.40;40.50;;;;;;4914626;29;20056;-78
2023/04/12 09:09:43;;;;;;;20.98;6.00;;;28.50;41.10;;;;;;4910679;29;20139;-78
2023/04/12 09:12:12;;;;;;;27.77;5.78;;;28.80;40.70;;;;;;4909175;29;20115;-77
2023/04/12 09:14:42;;;;;;;27.92;6.10;;;28.90;40.50;;;;;;4917715;29;20052;-76
2023/04/12 09:17:24;;;;;;;26.30;6.53;;;29.00;41.00;;;;;;4918201;29;20062;-78
2023/04/12 09:19:52;;;;;;;24.50;6.22;;;29.10;41.40;;;;;;4918638;29;20426;-78
2023/04/12 09:22:19;;;;;;;18.75;6.10;;;29.30;40.90;;;;;;4907165;29;20523;-77
2023/04/12 09:24:54;;;;;;;25.63;6.07;;;29.40;40.10;;;;;;4912557;29;20513;-80
2023/04/12 09:27:22;;;;;;;27.13;5.55;;;29.70;40.60;;;;;;4877644;29;20116;-78
2023/04/12 09:29:51;;;;;;;22.05;6.03;;;29.70;40.30;;;;;;4912553;29;20143;-78
2023/04/12 09:32:27;;;;;;;17.98;5.22;;;29.70;40.20;;;;;;4879129;29;20044;-76
2023/04/12 09:35:01;;;;;;;18.88;5.03;;;29.70;39.70;;;;;;4912154;29;20100;-78
2023/04/12 09:37:28;;;;;;;31.02;5.90;;;29.80;40.20;;;;;;4914819;29;20135;-76
2023/04/12 09:40:03;;;;;;;30.92;6.47;;;29.80;40.70;;;;;;4916625;29;20084;-77
2023/04/12 09:42:32;;;;;;;17.48;5.65;;;29.50;40.30;;;;;;4898611;29;20107;-77
2023/04/12 09:45:01;;;;;;;21.17;5.43;;;29.10;40.30;;;;;;4906550;29;20764;-77
2023/04/12 09:47:41;;;;;;;24.10;5.47;;;28.60;40.70;;;;;;4914170;29;20457;-80
2023/04/12 09:50:09;;;;;;;34.00;6.00;;;27.90;41.30;;;;;;4898351;29;20127;-80
2023/04/12 09:52:39;;;;;;;19.42;5.70;;;27.60;43.10;;;;;;4916029;29;20434;-78
2023/04/12 09:55:10;;;;;;;19.73;5.63;;;27.60;42.20;;;;;;4897787;29;20062;-78
2023/04/12 09:57:41;;;;;;;15.63;5.10;;;27.60;42.20;;;;;;4923106;29;20052;-77
2023/04/12 10:00:15;;;;;;;25.08;5.65;;;27.80;42.80;;;;;;4911889;29;20568;-77
2023/04/12 10:02:49;;;;;;;17.38;4.97;;;28.30;42.90;;;;;;4899045;29;20050;-78
2023/04/12 10:05:19;;;;;;;13.48;5.03;;;29.00;41.70;;;;;;4914473;29;20509;-78
2023/04/12 10:07:47;;;;;;;17.35;4.65;;;29.50;40.40;;;;;;4913981;29;20416;-78
2023/04/12 10:10:18;;;;;;;15.60;5.28;;;30.10;40.20;;;;;;4898313;29;20143;-79
2023/04/12 10:12:47;;;;;;;19.42;5.00;;;30.30;39.80;;;;;;4897312;29;20292;-81
2023/04/12 10:15:17;;;;;;;19.20;4.88;;;30.60;40.70;;;;;;4899303;29;20357;-80
2023/04/12 10:17:48;;;;;;;16.58;4.65;;;30.90;40.60;;;;;;4896342;29;20040;-82
2023/04/12 10:20:17;;;;;;;9.90;4.35;;;31.20;39.20;;;;;;4897963;29;20312;-80
2023/04/12 10:22:48;;;;;;;14.55;4.00;;;31.30;39.10;;;;;;4917195;29;20145;-80
2023/04/12 10:25:18;;;;;;;15.80;4.28;;;31.20;38.80;;;;;;4912755;29;20150;-80
2023/04/12 10:27:47;;;;;;;17.48;4.63;;;31.20;38.50;;;;;;4917453;29;20142;-80
2023/04/12 10:30:26;;;;;;;11.45;4.00;;;31.30;39.00;;;;;;4900800;29;20048;-81
2023/04/12 10:33:16;;;;;;;10.10;3.78;;;31.30;39.20;;;;;;4896352;29;20055;-80
2023/04/12 10:36:01;;;;;;;12.57;4.38;;;31.40;39.30;;;;;;4897925;29;20044;-79
2023/04/12 10:38:31;;;;;;;10.77;4.13;;;31.50;39.50;;;;;;4911201;29;20071;-78
2023/04/12 10:41:17;;;;;;;20.33;4.00;;;31.50;38.80;;;;;;4911639;29;20499;-79
2023/04/12 10:43:55;;;;;;;14.73;4.45;;;31.60;37.80;;;;;;4898281;29;20052;-82
2023/04/12 10:46:51;;;;;;;12.85;4.28;;;31.80;39.50;;;;;;4881615;29;20056;-82
2023/04/12 10:49:23;;;;;;;15.52;4.13;;;31.60;38.80;;;;;;4912484;29;20498;-82
2023/04/12 10:52:21;;;;;;;16.35;4.03;;;31.40;38.80;;;;;;4897626;29;20103;-84
2023/04/12 10:55:31;;;;;;;15.00;4.03;;;31.20;39.20;;;;;;4871044;29;20517;-82
2023/04/12 10:57:59;;;;;;;17.05;4.85;;;30.40;39.70;;;;;;4880726;29;20445;-82
2023/04/12 11:01:12;;;;;;;18.60;5.50;;;29.70;39.10;;;;;;4919374;29;20095;-82
2023/04/12 11:04:09;;;;;;;21.42;5.15;;;29.20;40.20;;;;;;4906781;29;20058;-84
2023/04/12 11:07:01;;;;;;;12.95;4.43;;;28.80;40.40;;;;;;4915672;29;20052;-82
2023/04/12 11:10:01;;;;;;;10.48;4.53;;;29.10;40.60;;;;;;4854534;29;20161;-83
2023/04/12 11:12:39;;;;;;;18.10;5.03;;;29.20;39.80;;;;;;4895278;29;20044;-81
2023/04/12 11:15:10;;;;;;;17.65;4.90;;;30.00;39.70;;;;;;4911897;29;20060;-81
2023/04/12 11:17:54;;;;;;;14.57;4.72;;;30.70;40.10;;;;;;4895464;29;20072;-83
2023/04/12 11:20:22;;;;;;;10.77;3.70;;;31.20;39.10;;;;;;4914380;29;20072;-85
2023/04/12 11:22:53;;;;;;;6.82;4.13;;;31.50;38.20;;;;;;4895043;29;20050;-82
2023/04/12 11:25:23;;;;;;;10.77;4.35;;;31.80;38.50;;;;;;4881887;29;20052;-81
2023/04/12 11:27:53;;;;;;;13.13;4.75;;;32.10;38.50;;;;;;4905005;29;20075;-81
2023/04/12 11:30:22;;;;;;;21.17;4.45;;;32.50;37.10;;;;;;4901711;29;20078;-81
2023/04/12 11:32:50;;;;;;;21.83;5.07;;;32.70;36.70;;;;;;4900917;29;20070;-82
2023/04/12 11:35:26;;;;;;;14.43;4.57;;;32.80;36.60;;;;;;4887680;29;20528;-79
2023/04/12 11:37:57;;;;;;;14.35;4.30;;;32.70;36.80;;;;;;4894327;29;20549;-81
2023/04/12 11:40:29;;;;;;;17.25;4.80;;;32.70;35.60;;;;;;4894916;29;20052;-79
2023/04/12 11:42:58;;;;;;;11.70;4.95;;;32.70;36.00;;;;;;4889470;29;20047;-81
2023/04/12 11:45:25;;;;;;;12.95;4.43;;;32.70;36.00;;;;;;4918398;29;20052;-82
2023/04/12 11:47:53;;;;;;;12.05;4.05;;;32.70;36.40;;;;;;4921028;29;20620;-81
2023/04/12 11:50:30;;;;;;;14.70;4.60;;;32.90;35.20;;;;;;4910310;29;20052;-82
2023/04/12 11:53:12;;;;;;;8.98;4.20;;;32.90;35.60;;;;;;4906972;29;20414;-81
2023/04/12 11:55:41;;;;;;;14.23;4.07;;;32.90;35.60;;;;;;4901639;29;20486;-81
2023/04/12 11:58:10;;;;;;;14.85;4.47;;;32.80;35.90;;;;;;4908718;29;20500;-82
2023/04/12 12:00:38;;;;;;;11.07;4.03;;;33.00;35.00;;;;;;4899821;29;20054;-82
2023/04/12 12:03:06;;;;;;;15.68;4.18;;;33.10;36.20;;;;;;4889096;29;20639;-80
2023/04/12 12:05:36;;;;;;;11.88;4.28;;;33.20;36.30;;;;;;4896879;29;20405;-80
2023/04/12 12:08:06;;;;;;;16.50;4.30;;;33.20;35.60;;;;;;4913589;29;20048;-80
2023/04/12 12:10:38;;;;;;;8.75;3.97;;;33.10;35.40;;;;;;4896410;29;20102;-81
2023/04/12 12:13:11;;;;;;;14.30;4.15;;;33.10;35.30;;;;;;4913888;29;20055;-81
2023/04/12 12:15:38;;;;;;;11.82;4.10;;;32.90;34.90;;;;;;4922383;29;20044;-80
2023/04/12 12:18:09;;;;;;;12.60;4.38;;;33.00;35.20;;;;;;4887390;29;20040;-83
2023/04/12 12:20:42;;;;;;;7.45;3.92;;;33.30;34.80;;;;;;4904620;29;20059;-83
2023/04/12 12:23:09;;;;;;;16.65;4.45;;;33.40;35.00;;;;;;4898355;29;20075;-83
2023/04/12 12:25:46;;;;;;;18.88;4.78;;;33.40;34.20;;;;;;4906935;29;20052;-84
2023/04/12 12:28:13;;;;;;;13.90;4.63;;;33.20;34.80;;;;;;4922306;29;20509;-85
2023/04/12 12:30:41;;;;;;;13.07;4.32;;;33.10;34.80;;;;;;4917147;29;20055;-86
2023/04/12 12:33:09;;;;;;;14.25;4.40;;;32.90;34.40;;;;;;4915003;29;20549;-83
2023/04/12 12:35:37;;;;;;;15.68;4.45;;;32.80;34.70;;;;;;4909076;29;20085;-78
2023/04/12 12:38:07;;;;;;;17.13;4.47;;;32.90;35.10;;;;;;4912181;29;20079;-76
2023/04/12 12:40:35;;;;;;;12.50;4.32;;;33.00;34.90;;;;;;4907890;29;20060;-79
2023/04/12 12:43:05;;;;;;;19.17;4.10;;;33.00;35.10;;;;;;4919732;29;20352;-77
2023/04/12 12:45:34;;;;;;;16.08;4.25;;;33.10;33.80;;;;;;4920292;29;20071;-77
2023/04/12 12:48:04;;;;;;;14.20;3.90;;;33.00;34.60;;;;;;4906995;29;20059;-78
2023/04/12 12:50:35;;;;;;;9.73;4.15;;;33.00;34.30;;;;;;4905628;29;20047;-78
2023/04/12 12:53:04;;;;;;;15.07;4.03;;;32.90;34.10;;;;;;4910482;29;20436;-78
2023/04/12 12:55:36;;;;;;;16.30;4.25;;;33.00;33.80;;;;;;4908470;29;20052;-77
2023/04/12 12:58:05;;;;;;;17.92;5.50;;;32.80;33.30;;;;;;4908242;29;20052;-80
2023/04/12 13:00:32;;;;;;;20.38;4.70;;;32.70;34.10;;;;;;4917192;29;20147;-78
2023/04/12 13:03:00;;;;;;;13.68;4.60;;;32.70;33.60;;;;;;4918842;29;20055;-78
2023/04/12 13:05:27;;;;;;;6.75;4.05;;;32.60;33.30;;;;;;4917574;29;20513;-77
2023/04/12 13:07:55;;;;;;;10.23;4.20;;;32.50;33.70;;;;;;4912991;29;20141;-77